sensor_id;sensor_type;location;lat;lon;timestamp;temperature;humidity
74376;HTU21D;62812;55.188;61.302;2023-07-28T00:05:29;25.99;51.97
74376;HTU21D;62812;55.188;61.302;2023-07-28T00:08:26;25.94;52.21
74376;HTU21D;62812;55.188;61.302;2023-07-28T00:11:42;25.88;52.37
74376;HTU21D;62812;55.188;61.302;2023-07-28T00:34:27;26.87;50.47
74376;HTU21D;62812;55.188;61.302;2023-07-28T00:37:09;27.01;49.95
74376;HTU21D;62812;55.188;61.302;2023-07-28T00:39:45;27.12;49.71
74376;HTU21D;62812;55.188;61.302;2023-07-28T00:42:50;27.23;49.44
74376;HTU21D;62812;55.188;61.302;2023-07-28T00:45:31;27.37;49.09
74376;HTU21D;62812;55.188;61.302;2023-07-28T00:48:15;27.43;48.94
74376;HTU21D;62812;55.188;61.302;2023-07-28T00:51:30;27.54;48.58
74376;HTU21D;62812;55.188;61.302;2023-07-28T00:54:36;27.64;48.28
74376;HTU21D;62812;55.188;61.302;2023-07-28T00:57:30;27.70;48.08
74376;HTU21D;62812;55.188;61.302;2023-07-28T01:00:07;27.80;47.92
74376;HTU21D;62812;55.188;61.302;2023-07-28T01:03:18;27.95;47.58
74376;HTU21D;62812;55.188;61.302;2023-07-28T01:06:29;28.04;47.11
74376;HTU21D;62812;55.188;61.302;2023-07-28T01:09:18;28.08;47.04
74376;HTU21D;62812;55.188;61.302;2023-07-28T01:12:11;28.14;46.60
74376;HTU21D;62812;55.188;61.302;2023-07-28T01:15:15;28.09;46.71
74376;HTU21D;62812;55.188;61.302;2023-07-28T01:18:05;28.05;46.77
74376;HTU21D;62812;55.188;61.302;2023-07-28T01:20:47;27.97;47.03
74376;HTU21D;62812;55.188;61.302;2023-07-28T01:23:44;27.96;47.08
74376;HTU21D;62812;55.188;61.302;2023-07-28T01:26:39;27.94;47.08
74376;HTU21D;62812;55.188;61.302;2023-07-28T01:29:20;27.87;47.22
74376;HTU21D;62812;55.188;61.302;2023-07-28T01:32:14;27.73;47.55
74376;HTU21D;62812;55.188;61.302;2023-07-28T01:35:31;27.70;47.85
74376;HTU21D;62812;55.188;61.302;2023-07-28T01:37:56;27.71;47.82
74376;HTU21D;62812;55.188;61.302;2023-07-28T01:40:35;27.72;47.70
74376;HTU21D;62812;55.188;61.302;2023-07-28T01:43:08;27.75;47.63
74376;HTU21D;62812;55.188;61.302;2023-07-28T01:45:53;27.75;47.67
74376;HTU21D;62812;55.188;61.302;2023-07-28T01:48:29;27.73;47.75
74376;HTU21D;62812;55.188;61.302;2023-07-28T01:51:00;27.74;47.83
74376;HTU21D;62812;55.188;61.302;2023-07-28T01:53:41;27.73;47.89
74376;HTU21D;62812;55.188;61.302;2023-07-28T02:11:07;28.69;46.04
74376;HTU21D;62812;55.188;61.302;2023-07-28T02:13:38;29.12;45.41
74376;HTU21D;62812;55.188;61.302;2023-07-28T02:16:08;29.50;44.00
74376;HTU21D;62812;55.188;61.302;2023-07-28T02:18:36;29.86;43.60
74376;HTU21D;62812;55.188;61.302;2023-07-28T02:21:03;30.26;42.80
74376;HTU21D;62812;55.188;61.302;2023-07-28T02:23:35;30.64;41.95
74376;HTU21D;62812;55.188;61.302;2023-07-28T02:26:07;30.91;40.95
74376;HTU21D;62812;55.188;61.302;2023-07-28T02:28:35;31.13;40.56
74376;HTU21D;62812;55.188;61.302;2023-07-28T02:31:05;31.23;40.35
74376;HTU21D;62812;55.188;61.302;2023-07-28T02:33:33;31.21;39.97
74376;HTU21D;62812;55.188;61.302;2023-07-28T02:36:04;31.05;40.53
74376;HTU21D;62812;55.188;61.302;2023-07-28T02:38:33;31.22;40.36
74376;HTU21D;62812;55.188;61.302;2023-07-28T02:41:01;31.41;39.88
74376;HTU21D;62812;55.188;61.302;2023-07-28T02:43:35;31.54;39.32
74376;HTU21D;62812;55.188;61.302;2023-07-28T02:46:02;31.69;39.36
74376;HTU21D;62812;55.188;61.302;2023-07-28T02:48:29;31.96;38.62
74376;HTU21D;62812;55.188;61.302;2023-07-28T02:50:57;32.14;38.13
74376;HTU21D;62812;55.188;61.302;2023-07-28T02:53:24;32.35;37.92
74376;HTU21D;62812;55.188;61.302;2023-07-28T02:55:51;32.62;37.39
74376;HTU21D;62812;55.188;61.302;2023-07-28T02:58:20;32.60;37.14
74376;HTU21D;62812;55.188;61.302;2023-07-28T03:00:51;32.54;37.63
74376;HTU21D;62812;55.188;61.302;2023-07-28T03:03:18;32.63;37.40
74376;HTU21D;62812;55.188;61.302;2023-07-28T03:05:55;32.93;36.88
74376;HTU21D;62812;55.188;61.302;2023-07-28T03:08:22;33.14;36.62
74376;HTU21D;62812;55.188;61.302;2023-07-28T03:10:50;33.38;36.02
74376;HTU21D;62812;55.188;61.302;2023-07-28T03:13:18;33.62;35.76
74376;HTU21D;62812;55.188;61.302;2023-07-28T03:15:51;33.50;36.59
74376;HTU21D;62812;55.188;61.302;2023-07-28T03:18:20;33.85;35.29
74376;HTU21D;62812;55.188;61.302;2023-07-28T03:20:47;34.10;34.50
74376;HTU21D;62812;55.188;61.302;2023-07-28T03:23:14;33.74;35.98
74376;HTU21D;62812;55.188;61.302;2023-07-28T03:25:42;33.91;35.40
74376;HTU21D;62812;55.188;61.302;2023-07-28T03:28:11;34.15;34.75
74376;HTU21D;62812;55.188;61.302;2023-07-28T03:30:38;34.32;34.07
74376;HTU21D;62812;55.188;61.302;2023-07-28T03:33:18;34.39;34.16
74376;HTU21D;62812;55.188;61.302;2023-07-28T03:35:48;34.44;34.12
74376;HTU21D;62812;55.188;61.302;2023-07-28T03:38:16;34.24;34.64
74376;HTU21D;62812;55.188;61.302;2023-07-28T03:40:43;34.22;35.02
74376;HTU21D;62812;55.188;61.302;2023-07-28T03:43:12;34.34;34.52
74376;HTU21D;62812;55.188;61.302;2023-07-28T03:45:40;34.38;34.29
74376;HTU21D;62812;55.188;61.302;2023-07-28T03:48:13;34.15;34.88
74376;HTU21D;62812;55.188;61.302;2023-07-28T03:50:44;33.97;35.52
74376;HTU21D;62812;55.188;61.302;2023-07-28T03:53:16;33.70;36.19
74376;HTU21D;62812;55.188;61.302;2023-07-28T03:55:43;33.61;36.29
74376;HTU21D;62812;55.188;61.302;2023-07-28T03:58:13;33.33;36.76
74376;HTU21D;62812;55.188;61.302;2023-07-28T04:00:40;33.36;37.01
74376;HTU21D;62812;55.188;61.302;2023-07-28T04:03:11;33.40;36.78
74376;HTU21D;62812;55.188;61.302;2023-07-28T04:05:41;33.27;37.43
74376;HTU21D;62812;55.188;61.302;2023-07-28T04:08:09;33.34;37.24
74376;HTU21D;62812;55.188;61.302;2023-07-28T04:10:36;33.01;37.85
74376;HTU21D;62812;55.188;61.302;2023-07-28T04:13:05;32.88;38.80
74376;HTU21D;62812;55.188;61.302;2023-07-28T04:15:32;32.88;38.87
74376;HTU21D;62812;55.188;61.302;2023-07-28T04:17:59;32.77;39.71
74376;HTU21D;62812;55.188;61.302;2023-07-28T04:20:30;32.48;40.31
74376;HTU21D;62812;55.188;61.302;2023-07-28T04:23:13;32.43;40.87
74376;HTU21D;62812;55.188;61.302;2023-07-28T04:25:43;32.07;41.10
74376;HTU21D;62812;55.188;61.302;2023-07-28T04:28:11;32.46;40.17
74376;HTU21D;62812;55.188;61.302;2023-07-28T04:30:41;32.60;39.88
74376;HTU21D;62812;55.188;61.302;2023-07-28T04:33:07;32.60;39.77
74376;HTU21D;62812;55.188;61.302;2023-07-28T04:39:52;32.48;40.51
74376;HTU21D;62812;55.188;61.302;2023-07-28T04:43:52;32.74;39.59
74376;HTU21D;62812;55.188;61.302;2023-07-28T05:07:42;32.56;40.33
74376;HTU21D;62812;55.188;61.302;2023-07-28T05:11:32;32.89;38.83
74376;HTU21D;62812;55.188;61.302;2023-07-28T05:14:26;33.16;38.23
74376;HTU21D;62812;55.188;61.302;2023-07-28T05:17:14;32.89;39.24
74376;HTU21D;62812;55.188;61.302;2023-07-28T05:19:48;32.41;40.52
74376;HTU21D;62812;55.188;61.302;2023-07-28T05:22:19;32.29;40.89
74376;HTU21D;62812;55.188;61.302;2023-07-28T05:25:00;32.43;40.74
74376;HTU21D;62812;55.188;61.302;2023-07-28T05:27:36;32.38;40.71
74376;HTU21D;62812;55.188;61.302;2023-07-28T05:30:05;32.14;41.10
74376;HTU21D;62812;55.188;61.302;2023-07-28T05:32:55;31.87;42.13
74376;HTU21D;62812;55.188;61.302;2023-07-28T05:35:25;31.78;42.56
74376;HTU21D;62812;55.188;61.302;2023-07-28T05:37:52;31.90;42.49
74376;HTU21D;62812;55.188;61.302;2023-07-28T05:40:43;31.94;42.15
74376;HTU21D;62812;55.188;61.302;2023-07-28T05:43:15;31.71;42.59
74376;HTU21D;62812;55.188;61.302;2023-07-28T05:45:47;31.58;42.74
74376;HTU21D;62812;55.188;61.302;2023-07-28T05:48:32;31.67;42.47
74376;HTU21D;62812;55.188;61.302;2023-07-28T05:51:13;31.53;42.78
74376;HTU21D;62812;55.188;61.302;2023-07-28T05:53:51;31.26;43.48
74376;HTU21D;62812;55.188;61.302;2023-07-28T05:56:23;31.09;43.66
74376;HTU21D;62812;55.188;61.302;2023-07-28T05:58:59;31.12;42.94
74376;HTU21D;62812;55.188;61.302;2023-07-28T06:01:56;31.29;43.33
74376;HTU21D;62812;55.188;61.302;2023-07-28T06:04:53;31.29;43.30
74376;HTU21D;62812;55.188;61.302;2023-07-28T06:07:44;31.27;43.06
74376;HTU21D;62812;55.188;61.302;2023-07-28T06:10:39;31.45;42.65
74376;HTU21D;62812;55.188;61.302;2023-07-28T06:13:21;31.56;42.24
74376;HTU21D;62812;55.188;61.302;2023-07-28T06:15:57;31.72;41.83
74376;HTU21D;62812;55.188;61.302;2023-07-28T06:18:28;31.84;41.12
74376;HTU21D;62812;55.188;61.302;2023-07-28T06:21:01;31.69;41.84
74376;HTU21D;62812;55.188;61.302;2023-07-28T06:23:34;31.46;42.23
74376;HTU21D;62812;55.188;61.302;2023-07-28T06:26:19;30.99;43.21
74376;HTU21D;62812;55.188;61.302;2023-07-28T06:28:48;30.82;43.32
74376;HTU21D;62812;55.188;61.302;2023-07-28T06:31:19;30.80;43.52
74376;HTU21D;62812;55.188;61.302;2023-07-28T06:33:50;30.47;43.64
74376;HTU21D;62812;55.188;61.302;2023-07-28T06:36:20;30.48;44.26
74376;HTU21D;62812;55.188;61.302;2023-07-28T06:38:48;30.50;44.16
74376;HTU21D;62812;55.188;61.302;2023-07-28T06:41:19;30.55;44.58
74376;HTU21D;62812;55.188;61.302;2023-07-28T06:43:52;30.55;44.74
74376;HTU21D;62812;55.188;61.302;2023-07-28T06:46:21;30.54;44.50
74376;HTU21D;62812;55.188;61.302;2023-07-28T06:48:49;30.74;44.18
74376;HTU21D;62812;55.188;61.302;2023-07-28T06:51:22;30.77;42.62
74376;HTU21D;62812;55.188;61.302;2023-07-28T06:54:03;31.01;43.62
74376;HTU21D;62812;55.188;61.302;2023-07-28T06:56:55;31.09;43.13
74376;HTU21D;62812;55.188;61.302;2023-07-28T06:59:48;31.18;42.67
74376;HTU21D;62812;55.188;61.302;2023-07-28T07:02:57;31.29;42.31
74376;HTU21D;62812;55.188;61.302;2023-07-28T07:05:32;31.22;42.41
74376;HTU21D;62812;55.188;61.302;2023-07-28T07:08:02;30.80;43.06
74376;HTU21D;62812;55.188;61.302;2023-07-28T07:10:33;30.60;43.54
74376;HTU21D;62812;55.188;61.302;2023-07-28T07:13:04;30.50;43.85
74376;HTU21D;62812;55.188;61.302;2023-07-28T07:15:38;30.33;44.35
74376;HTU21D;62812;55.188;61.302;2023-07-28T07:18:06;30.49;44.23
74376;HTU21D;62812;55.188;61.302;2023-07-28T07:20:36;30.55;43.74
74376;HTU21D;62812;55.188;61.302;2023-07-28T07:23:04;30.57;43.37
74376;HTU21D;62812;55.188;61.302;2023-07-28T07:25:33;30.46;43.19
74376;HTU21D;62812;55.188;61.302;2023-07-28T07:28:00;30.35;43.28
74376;HTU21D;62812;55.188;61.302;2023-07-28T07:30:31;30.32;40.75
74376;HTU21D;62812;55.188;61.302;2023-07-28T07:33:07;30.26;42.86
74376;HTU21D;62812;55.188;61.302;2023-07-28T07:35:37;30.21;42.27
74376;HTU21D;62812;55.188;61.302;2023-07-28T07:38:11;30.10;42.03
74376;HTU21D;62812;55.188;61.302;2023-07-28T07:40:42;30.02;41.98
74376;HTU21D;62812;55.188;61.302;2023-07-28T07:43:14;29.93;41.90
74376;HTU21D;62812;55.188;61.302;2023-07-28T07:45:47;29.85;42.23
74376;HTU21D;62812;55.188;61.302;2023-07-28T07:48:23;29.80;42.21
74376;HTU21D;62812;55.188;61.302;2023-07-28T07:50:51;29.90;42.04
74376;HTU21D;62812;55.188;61.302;2023-07-28T07:53:19;29.89;41.70
74376;HTU21D;62812;55.188;61.302;2023-07-28T07:55:51;29.93;41.66
74376;HTU21D;62812;55.188;61.302;2023-07-28T07:58:21;29.93;41.60
74376;HTU21D;62812;55.188;61.302;2023-07-28T08:00:52;29.96;41.49
74376;HTU21D;62812;55.188;61.302;2023-07-28T08:03:28;29.93;41.48
74376;HTU21D;62812;55.188;61.302;2023-07-28T08:06:09;29.95;41.31
74376;HTU21D;62812;55.188;61.302;2023-07-28T08:08:39;29.96;41.33
74376;HTU21D;62812;55.188;61.302;2023-07-28T08:11:12;29.98;40.46
74376;HTU21D;62812;55.188;61.302;2023-07-28T08:13:40;30.06;40.54
74376;HTU21D;62812;55.188;61.302;2023-07-28T08:16:11;30.02;41.20
74376;HTU21D;62812;55.188;61.302;2023-07-28T08:18:40;29.92;41.36
74376;HTU21D;62812;55.188;61.302;2023-07-28T08:21:16;29.82;41.59
74376;HTU21D;62812;55.188;61.302;2023-07-28T08:23:43;29.79;41.34
74376;HTU21D;62812;55.188;61.302;2023-07-28T08:26:17;29.85;41.49
74376;HTU21D;62812;55.188;61.302;2023-07-28T08:28:44;29.92;41.25
74376;HTU21D;62812;55.188;61.302;2023-07-28T08:31:13;30.07;41.00
74376;HTU21D;62812;55.188;61.302;2023-07-28T08:33:46;30.17;40.75
74376;HTU21D;62812;55.188;61.302;2023-07-28T08:36:15;30.20;40.71
74376;HTU21D;62812;55.188;61.302;2023-07-28T08:38:44;30.15;41.13
74376;HTU21D;62812;55.188;61.302;2023-07-28T08:41:14;29.96;40.32
74376;HTU21D;62812;55.188;61.302;2023-07-28T08:43:43;30.05;41.24
74376;HTU21D;62812;55.188;61.302;2023-07-28T08:46:12;30.10;40.53
74376;HTU21D;62812;55.188;61.302;2023-07-28T08:48:41;29.97;39.78
74376;HTU21D;62812;55.188;61.302;2023-07-28T08:51:13;30.00;39.39
74376;HTU21D;62812;55.188;61.302;2023-07-28T08:53:42;29.98;39.11
74376;HTU21D;62812;55.188;61.302;2023-07-28T08:56:11;30.00;38.33
74376;HTU21D;62812;55.188;61.302;2023-07-28T08:58:38;30.15;38.89
74376;HTU21D;62812;55.188;61.302;2023-07-28T09:01:07;30.17;38.78
74376;HTU21D;62812;55.188;61.302;2023-07-28T09:03:40;30.22;38.79
74376;HTU21D;62812;55.188;61.302;2023-07-28T09:06:13;30.22;38.01
74376;HTU21D;62812;55.188;61.302;2023-07-28T09:08:43;30.31;38.20
74376;HTU21D;62812;55.188;61.302;2023-07-28T09:11:10;30.33;38.46
74376;HTU21D;62812;55.188;61.302;2023-07-28T09:13:41;30.34;38.21
74376;HTU21D;62812;55.188;61.302;2023-07-28T09:16:21;30.35;37.98
74376;HTU21D;62812;55.188;61.302;2023-07-28T09:18:50;30.35;37.62
74376;HTU21D;62812;55.188;61.302;2023-07-28T09:21:21;30.30;37.30
74376;HTU21D;62812;55.188;61.302;2023-07-28T09:23:50;30.23;37.62
74376;HTU21D;62812;55.188;61.302;2023-07-28T09:26:21;30.19;37.43
74376;HTU21D;62812;55.188;61.302;2023-07-28T09:28:49;30.26;37.31
74376;HTU21D;62812;55.188;61.302;2023-07-28T09:31:29;30.41;37.65
74376;HTU21D;62812;55.188;61.302;2023-07-28T09:33:57;30.50;37.43
74376;HTU21D;62812;55.188;61.302;2023-07-28T09:36:27;30.59;37.49
74376;HTU21D;62812;55.188;61.302;2023-07-28T09:38:56;30.63;36.60
74376;HTU21D;62812;55.188;61.302;2023-07-28T09:41:23;30.74;38.30
74376;HTU21D;62812;55.188;61.302;2023-07-28T09:43:55;30.76;35.97
74376;HTU21D;62812;55.188;61.302;2023-07-28T09:46:29;30.70;37.68
74376;HTU21D;62812;55.188;61.302;2023-07-28T09:48:59;30.72;37.60
74376;HTU21D;62812;55.188;61.302;2023-07-28T09:51:31;30.63;37.34
74376;HTU21D;62812;55.188;61.302;2023-07-28T09:54:05;30.69;38.56
74376;HTU21D;62812;55.188;61.302;2023-07-28T09:56:35;30.68;38.80
74376;HTU21D;62812;55.188;61.302;2023-07-28T09:59:11;30.69;38.46
74376;HTU21D;62812;55.188;61.302;2023-07-28T10:01:39;30.57;39.14
74376;HTU21D;62812;55.188;61.302;2023-07-28T10:04:08;30.32;37.99
74376;HTU21D;62812;55.188;61.302;2023-07-28T10:06:55;30.27;38.27
74376;HTU21D;62812;55.188;61.302;2023-07-28T10:09:54;30.30;38.19
74376;HTU21D;62812;55.188;61.302;2023-07-28T10:12:24;30.60;37.81
74376;HTU21D;62812;55.188;61.302;2023-07-28T10:15:04;30.78;38.21
74376;HTU21D;62812;55.188;61.302;2023-07-28T10:18:12;30.95;38.58
74376;HTU21D;62812;55.188;61.302;2023-07-28T10:20:40;31.04;38.24
74376;HTU21D;62812;55.188;61.302;2023-07-28T10:23:38;31.14;37.72
74376;HTU21D;62812;55.188;61.302;2023-07-28T10:26:09;31.24;38.09
74376;HTU21D;62812;55.188;61.302;2023-07-28T10:29:10;31.33;37.95
74376;HTU21D;62812;55.188;61.302;2023-07-28T10:32:34;31.00;37.53
74376;HTU21D;62812;55.188;61.302;2023-07-28T10:35:06;31.18;37.29
74376;HTU21D;62812;55.188;61.302;2023-07-28T10:37:34;31.31;38.01
74376;HTU21D;62812;55.188;61.302;2023-07-28T10:40:34;31.37;38.20
74376;HTU21D;62812;55.188;61.302;2023-07-28T10:43:01;31.21;37.65
74376;HTU21D;62812;55.188;61.302;2023-07-28T10:45:37;31.10;37.69
74376;HTU21D;62812;55.188;61.302;2023-07-28T10:48:23;31.01;37.22
74376;HTU21D;62812;55.188;61.302;2023-07-28T10:50:56;31.01;37.83
74376;HTU21D;62812;55.188;61.302;2023-07-28T10:53:23;30.81;37.96
74376;HTU21D;62812;55.188;61.302;2023-07-28T10:55:54;30.82;38.15
74376;HTU21D;62812;55.188;61.302;2023-07-28T10:58:21;30.82;38.27
74376;HTU21D;62812;55.188;61.302;2023-07-28T11:00:50;30.76;38.08
74376;HTU21D;62812;55.188;61.302;2023-07-28T11:03:18;30.71;37.99
74376;HTU21D;62812;55.188;61.302;2023-07-28T11:05:48;30.68;38.23
74376;HTU21D;62812;55.188;61.302;2023-07-28T11:08:17;30.67;38.74
74376;HTU21D;62812;55.188;61.302;2023-07-28T11:10:44;30.65;37.53
74376;HTU21D;62812;55.188;61.302;2023-07-28T11:13:13;30.70;37.59
74376;HTU21D;62812;55.188;61.302;2023-07-28T11:15:40;30.63;37.23
74376;HTU21D;62812;55.188;61.302;2023-07-28T11:18:07;30.60;36.85
74376;HTU21D;62812;55.188;61.302;2023-07-28T11:20:34;30.60;36.30
74376;HTU21D;62812;55.188;61.302;2023-07-28T11:23:01;30.55;36.66
74376;HTU21D;62812;55.188;61.302;2023-07-28T11:25:30;30.48;36.95
74376;HTU21D;62812;55.188;61.302;2023-07-28T11:28:02;30.44;37.34
74376;HTU21D;62812;55.188;61.302;2023-07-28T11:30:36;30.34;37.69
74376;HTU21D;62812;55.188;61.302;2023-07-28T11:33:09;30.23;37.08
74376;HTU21D;62812;55.188;61.302;2023-07-28T11:35:38;30.21;38.00
74376;HTU21D;62812;55.188;61.302;2023-07-28T11:38:07;30.18;36.79
74376;HTU21D;62812;55.188;61.302;2023-07-28T11:40:34;30.08;38.19
74376;HTU21D;62812;55.188;61.302;2023-07-28T11:43:04;30.19;40.20
74376;HTU21D;62812;55.188;61.302;2023-07-28T11:45:34;30.21;39.78
74376;HTU21D;62812;55.188;61.302;2023-07-28T11:48:04;30.22;40.10
74376;HTU21D;62812;55.188;61.302;2023-07-28T11:50:44;30.25;41.45
74376;HTU21D;62812;55.188;61.302;2023-07-28T11:57:00;30.28;41.04
74376;HTU21D;62812;55.188;61.302;2023-07-28T11:59:35;30.32;38.21
74376;HTU21D;62812;55.188;61.302;2023-07-28T12:02:34;30.41;41.74
74376;HTU21D;62812;55.188;61.302;2023-07-28T12:05:17;30.48;41.47
74376;HTU21D;62812;55.188;61.302;2023-07-28T12:07:52;30.41;39.80
74376;HTU21D;62812;55.188;61.302;2023-07-28T12:10:19;30.45;39.62
74376;HTU21D;62812;55.188;61.302;2023-07-28T12:12:46;30.40;38.68
74376;HTU21D;62812;55.188;61.302;2023-07-28T12:15:21;30.18;35.92
74376;HTU21D;62812;55.188;61.302;2023-07-28T12:18:16;30.00;35.96
74376;HTU21D;62812;55.188;61.302;2023-07-28T12:20:51;30.06;39.99
74376;HTU21D;62812;55.188;61.302;2023-07-28T12:23:19;30.17;40.60
74376;HTU21D;62812;55.188;61.302;2023-07-28T12:25:48;30.08;39.14
74376;HTU21D;62812;55.188;61.302;2023-07-28T12:28:32;30.21;41.30
74376;HTU21D;62812;55.188;61.302;2023-07-28T12:30:59;30.25;35.73
74376;HTU21D;62812;55.188;61.302;2023-07-28T12:33:29;30.02;34.50
74376;HTU21D;62812;55.188;61.302;2023-07-28T12:35:57;30.15;43.09
74376;HTU21D;62812;55.188;61.302;2023-07-28T12:38:24;30.27;44.38
74376;HTU21D;62812;55.188;61.302;2023-07-28T12:40:52;30.33;35.21
74376;HTU21D;62812;55.188;61.302;2023-07-28T12:43:19;30.27;41.73
74376;HTU21D;62812;55.188;61.302;2023-07-28T12:45:46;30.30;43.01
74376;HTU21D;62812;55.188;61.302;2023-07-28T12:48:13;30.32;41.23
74376;HTU21D;62812;55.188;61.302;2023-07-28T12:50:41;30.18;40.63
74376;HTU21D;62812;55.188;61.302;2023-07-28T12:53:22;30.12;41.23
74376;HTU21D;62812;55.188;61.302;2023-07-28T12:55:49;30.19;41.70
74376;HTU21D;62812;55.188;61.302;2023-07-28T12:58:16;30.27;41.68
74376;HTU21D;62812;55.188;61.302;2023-07-28T13:00:44;30.24;38.52
74376;HTU21D;62812;55.188;61.302;2023-07-28T13:03:10;30.28;40.45
74376;HTU21D;62812;55.188;61.302;2023-07-28T13:05:38;30.18;33.89
74376;HTU21D;62812;55.188;61.302;2023-07-28T13:08:06;30.15;38.60
74376;HTU21D;62812;55.188;61.302;2023-07-28T13:10:38;30.08;40.42
74376;HTU21D;62812;55.188;61.302;2023-07-28T13:13:08;30.05;35.53
74376;HTU21D;62812;55.188;61.302;2023-07-28T13:15:37;30.04;39.43
74376;HTU21D;62812;55.188;61.302;2023-07-28T13:18:04;30.09;39.18
74376;HTU21D;62812;55.188;61.302;2023-07-28T13:20:33;29.89;35.18
74376;HTU21D;62812;55.188;61.302;2023-07-28T13:23:00;29.72;36.95
74376;HTU21D;62812;55.188;61.302;2023-07-28T13:25:29;29.74;38.60
74376;HTU21D;62812;55.188;61.302;2023-07-28T13:27:57;29.74;35.34
74376;HTU21D;62812;55.188;61.302;2023-07-28T13:30:26;29.70;38.24
74376;HTU21D;62812;55.188;61.302;2023-07-28T13:32:57;29.83;39.16
74376;HTU21D;62812;55.188;61.302;2023-07-28T13:36:16;29.94;38.56
74376;HTU21D;62812;55.188;61.302;2023-07-28T13:38:52;29.93;32.76
74376;HTU21D;62812;55.188;61.302;2023-07-28T13:41:26;29.96;39.20
74376;HTU21D;62812;55.188;61.302;2023-07-28T13:43:53;29.98;39.82
74376;HTU21D;62812;55.188;61.302;2023-07-28T13:46:27;29.96;36.88
74376;HTU21D;62812;55.188;61.302;2023-07-28T13:48:57;29.95;35.54
74376;HTU21D;62812;55.188;61.302;2023-07-28T13:51:27;29.98;39.96
74376;HTU21D;62812;55.188;61.302;2023-07-28T13:53:57;29.94;33.45
74376;HTU21D;62812;55.188;61.302;2023-07-28T13:56:26;29.89;39.35
74376;HTU21D;62812;55.188;61.302;2023-07-28T13:58:57;29.85;37.84
74376;HTU21D;62812;55.188;61.302;2023-07-28T14:01:25;29.75;36.17
74376;HTU21D;62812;55.188;61.302;2023-07-28T14:03:54;29.80;33.56
74376;HTU21D;62812;55.188;61.302;2023-07-28T14:06:21;29.80;39.30
74376;HTU21D;62812;55.188;61.302;2023-07-28T14:08:48;29.76;37.43
74376;HTU21D;62812;55.188;61.302;2023-07-28T14:11:15;29.79;38.36
74376;HTU21D;62812;55.188;61.302;2023-07-28T14:13:44;29.83;38.22
74376;HTU21D;62812;55.188;61.302;2023-07-28T14:16:11;29.65;36.79
74376;HTU21D;62812;55.188;61.302;2023-07-28T14:18:38;29.57;34.22
74376;HTU21D;62812;55.188;61.302;2023-07-28T14:21:08;29.65;37.84
74376;HTU21D;62812;55.188;61.302;2023-07-28T14:23:35;29.76;37.64
74376;HTU21D;62812;55.188;61.302;2023-07-28T14:26:02;29.62;34.12
74376;HTU21D;62812;55.188;61.302;2023-07-28T14:28:29;29.61;35.27
74376;HTU21D;62812;55.188;61.302;2023-07-28T14:30:57;29.51;36.88
74376;HTU21D;62812;55.188;61.302;2023-07-28T14:33:26;29.59;38.71
74376;HTU21D;62812;55.188;61.302;2023-07-28T14:35:54;29.59;37.37
74376;HTU21D;62812;55.188;61.302;2023-07-28T14:38:24;29.63;38.49
74376;HTU21D;62812;55.188;61.302;2023-07-28T14:40:54;29.63;38.13
74376;HTU21D;62812;55.188;61.302;2023-07-28T14:43:21;29.66;38.02
74376;HTU21D;62812;55.188;61.302;2023-07-28T14:45:51;29.60;35.96
74376;HTU21D;62812;55.188;61.302;2023-07-28T14:48:26;29.64;38.51
74376;HTU21D;62812;55.188;61.302;2023-07-28T14:51:08;29.62;39.01
74376;HTU21D;62812;55.188;61.302;2023-07-28T14:53:40;29.58;39.48
74376;HTU21D;62812;55.188;61.302;2023-07-28T14:56:30;29.51;38.77
74376;HTU21D;62812;55.188;61.302;2023-07-28T14:59:30;29.58;38.69
74376;HTU21D;62812;55.188;61.302;2023-07-28T15:02:09;29.58;38.30
74376;HTU21D;62812;55.188;61.302;2023-07-28T15:04:42;29.49;37.57
74376;HTU21D;62812;55.188;61.302;2023-07-28T15:07:16;29.48;38.05
74376;HTU21D;62812;55.188;61.302;2023-07-28T15:09:50;29.48;38.12
74376;HTU21D;62812;55.188;61.302;2023-07-28T15:12:21;29.48;38.06
74376;HTU21D;62812;55.188;61.302;2023-07-28T15:14:57;29.44;36.98
74376;HTU21D;62812;55.188;61.302;2023-07-28T15:17:30;29.31;38.24
74376;HTU21D;62812;55.188;61.302;2023-07-28T15:20:03;29.36;37.64
74376;HTU21D;62812;55.188;61.302;2023-07-28T15:22:31;29.38;38.08
74376;HTU21D;62812;55.188;61.302;2023-07-28T15:25:05;29.35;37.99
74376;HTU21D;62812;55.188;61.302;2023-07-28T15:27:32;29.34;37.62
74376;HTU21D;62812;55.188;61.302;2023-07-28T15:30:04;29.32;38.16
74376;HTU21D;62812;55.188;61.302;2023-07-28T15:32:38;29.30;38.36
74376;HTU21D;62812;55.188;61.302;2023-07-28T15:35:19;29.23;38.31
74376;HTU21D;62812;55.188;61.302;2023-07-28T15:37:46;29.26;37.43
74376;HTU21D;62812;55.188;61.302;2023-07-28T15:40:13;29.23;38.02
74376;HTU21D;62812;55.188;61.302;2023-07-28T15:42:44;29.19;37.98
74376;HTU21D;62812;55.188;61.302;2023-07-28T15:45:15;29.09;36.55
74376;HTU21D;62812;55.188;61.302;2023-07-28T15:47:43;29.06;37.82
74376;HTU21D;62812;55.188;61.302;2023-07-28T15:50:18;29.05;38.12
74376;HTU21D;62812;55.188;61.302;2023-07-28T15:52:46;29.06;37.95
74376;HTU21D;62812;55.188;61.302;2023-07-28T15:55:15;29.05;37.94
74376;HTU21D;62812;55.188;61.302;2023-07-28T15:57:46;29.03;37.96
74376;HTU21D;62812;55.188;61.302;2023-07-28T16:00:14;29.01;38.01
74376;HTU21D;62812;55.188;61.302;2023-07-28T16:02:43;28.98;38.09
74376;HTU21D;62812;55.188;61.302;2023-07-28T16:05:24;28.94;37.92
74376;HTU21D;62812;55.188;61.302;2023-07-28T16:07:51;28.88;37.93
74376;HTU21D;62812;55.188;61.302;2023-07-28T16:10:18;28.87;38.18
74376;HTU21D;62812;55.188;61.302;2023-07-28T16:12:45;28.78;38.36
74376;HTU21D;62812;55.188;61.302;2023-07-28T16:15:12;28.79;38.23
74376;HTU21D;62812;55.188;61.302;2023-07-28T16:17:52;28.76;38.36
74376;HTU21D;62812;55.188;61.302;2023-07-28T16:20:31;28.75;38.21
74376;HTU21D;62812;55.188;61.302;2023-07-28T16:22:58;28.74;38.43
74376;HTU21D;62812;55.188;61.302;2023-07-28T16:25:28;28.73;38.23
74376;HTU21D;62812;55.188;61.302;2023-07-28T16:27:57;28.70;38.24
74376;HTU21D;62812;55.188;61.302;2023-07-28T16:30:27;28.69;38.17
74376;HTU21D;62812;55.188;61.302;2023-07-28T16:32:54;28.67;38.70
74376;HTU21D;62812;55.188;61.302;2023-07-28T16:35:23;28.64;38.77
74376;HTU21D;62812;55.188;61.302;2023-07-28T16:37:51;28.60;39.06
74376;HTU21D;62812;55.188;61.302;2023-07-28T16:40:23;28.56;38.95
74376;HTU21D;62812;55.188;61.302;2023-07-28T16:42:50;28.54;39.13
74376;HTU21D;62812;55.188;61.302;2023-07-28T16:45:19;28.53;38.94
74376;HTU21D;62812;55.188;61.302;2023-07-28T16:47:46;28.52;39.17
74376;HTU21D;62812;55.188;61.302;2023-07-28T16:50:14;28.52;39.21
74376;HTU21D;62812;55.188;61.302;2023-07-28T16:52:47;28.47;39.14
74376;HTU21D;62812;55.188;61.302;2023-07-28T16:55:16;28.46;39.27